EDLW METAR and TAF | Updated Today

EDLW METAR

Dortmund Airport

Observation time: 11 min. ago

EDLW 080720Z 17008KT 9999 FEW035 05/02 Q0996

Need help? Read our tutorial on how to read METARs or read the parsed version below.

Dortmund Airport (EDLW) METAR

  • Weather conditions on Wed, 08 Dec 2021 07:20:00 +0000 (11 min. ago):
  • Present conditions: Dry
  • Clouds: A few at 1067 meters
  • Visibility: Greater than 10 km
  • Wind: 170 degrees at 8 knots
  • Temperature: 5 celsius
  • Dew point: 2 celsius
  • Pressure: 996 millibars
  • Remarks: None


Useful to know...

EDLW TAF

Dortmund Airport

TAF EDLW 080500Z 0806/0906 18012KT 9999 SCT030 BECMG 0812/0815 19007KT
Observation time: 2:31 hr. ago
Need help? Read our tutorial on how to read TAFs or read the parsed version below.

Parsed version of TAF for Dortmund Airport (EDLW)

  • From 08 December at 06:00 UTC, to day 09 of the month at 06:00 UTC
  • Clouds: Scattered at 914 meters
  • Visibility: Greater than 10 km
  • Wind: 180 degrees at 12
  • Expected to arise soon, from 08 December at 12:00 UTC, to day 08 of the month at 15:00 UTC
  • Wind: 190 degrees at 7